Alexandria, Virginia
Current Conditions -  °F | °C
As of 5:52 AM on Friday 19 Dec 2014 (Local Time) from KDCA Reporting Station
Overcast Overcast  
Wind Chill:   Ceiling: 3600
Heat Index:   Visibility: 10mi
Dew Point: -6°   Wind: 7mph
Humidity: 52%   Direction: 300°WNW
Pressure: 30.13"   Gusts: NA
Location:  38.8°N, 77.04°W
Report Text: KDCA 191052Z 30006KT 10SM OVC036 03/M06 A3013 RMK AO2 SLP202 T00281061
Loading
Personal Weather Stations






























Interactive Weather Map New forecast layout! Learn more

10-Day Weather Forecast

Advertisements
Track Severe Weather on mobile